createdAt,value
2018-12-07T00:02:13.920Z,75.90
2018-12-07T00:04:41.734Z,76.00
2018-12-07T00:07:09.357Z,75.90
2018-12-07T00:09:36.979Z,75.90
2018-12-07T00:12:04.642Z,76.10
2018-12-07T00:14:32.251Z,76.00
2018-12-07T00:16:59.860Z,75.90
2018-12-07T00:19:27.416Z,76.10
2018-12-07T00:21:54.897Z,76.20
2018-12-07T00:24:22.539Z,76.20
2018-12-07T00:26:50.131Z,76.40
2018-12-07T00:29:17.722Z,76.20
2018-12-07T00:31:45.293Z,76.20
2018-12-07T00:34:12.876Z,76.20
2018-12-07T00:36:40.453Z,76.30
2018-12-07T00:39:08.141Z,76.20
2018-12-07T00:41:35.712Z,76.30
2018-12-07T00:44:03.328Z,76.90
2018-12-07T00:46:30.879Z,76.40
2018-12-07T00:48:58.515Z,76.40
2018-12-07T00:51:26.091Z,76.40
2018-12-07T00:53:53.746Z,77.20
2018-12-07T00:56:21.481Z,76.50
2018-12-07T00:58:49.068Z,76.50
2018-12-07T01:01:16.651Z,76.50
2018-12-07T01:03:44.228Z,76.60
2018-12-07T01:06:11.815Z,76.70
2018-12-07T01:08:39.546Z,76.70
2018-12-07T01:11:07.033Z,76.70
2018-12-07T01:13:34.514Z,76.70
2018-12-07T01:16:01.974Z,76.60
2018-12-07T01:18:29.433Z,76.60
2018-12-07T01:20:56.937Z,76.70
2018-12-07T01:23:24.501Z,76.60
2018-12-07T01:25:51.978Z,76.80
2018-12-07T01:28:19.466Z,76.70
2018-12-07T01:30:46.922Z,76.70
2018-12-07T01:33:14.370Z,76.80
2018-12-07T01:35:41.846Z,76.70
2018-12-07T01:38:09.293Z,76.70
2018-12-07T01:40:36.746Z,76.70
2018-12-07T01:43:04.219Z,76.70
2018-12-07T01:45:31.726Z,76.70
2018-12-07T01:47:59.182Z,76.60
2018-12-07T01:50:26.678Z,76.70
2018-12-07T01:52:54.146Z,76.70
2018-12-07T01:55:21.610Z,76.70
2018-12-07T01:57:49.188Z,76.70
2018-12-07T02:00:16.697Z,76.70
2018-12-07T02:02:44.382Z,76.70
2018-12-07T02:05:11.873Z,76.70
2018-12-07T02:07:39.341Z,76.70
2018-12-07T02:10:07.263Z,76.80
2018-12-07T02:12:34.881Z,76.80
2018-12-07T02:15:02.527Z,76.80
2018-12-07T02:17:30.269Z,77.00
2018-12-07T02:19:57.919Z,76.80
2018-12-07T02:22:25.539Z,76.90
2018-12-07T02:24:53.147Z,77.10
2018-12-07T02:27:20.907Z,76.90
2018-12-07T02:29:48.542Z,76.90
2018-12-07T02:32:16.126Z,76.90
2018-12-07T02:34:43.746Z,76.90
2018-12-07T02:37:11.338Z,76.80
2018-12-07T02:39:38.956Z,76.80
2018-12-07T02:42:06.499Z,76.80
2018-12-07T02:44:34.194Z,76.90
2018-12-07T02:47:02.438Z,77.00
2018-12-07T02:49:30.009Z,76.90
2018-12-07T02:51:57.589Z,77.70
2018-12-07T02:54:25.175Z,77.00
2018-12-07T02:56:52.752Z,77.00
2018-12-07T02:59:20.301Z,77.10
2018-12-07T03:01:47.996Z,77.10
2018-12-07T03:04:15.633Z,77.10
2018-12-07T03:06:43.266Z,77.00
2018-12-07T03:09:10.862Z,77.00
2018-12-07T03:11:38.534Z,76.90
2018-12-07T03:14:06.219Z,77.00
2018-12-07T03:16:33.822Z,77.10
2018-12-07T03:19:11.236Z,77.00
2018-12-07T03:46:02.263Z,77.30
2018-12-07T03:54:13.999Z,77.10
2018-12-07T03:56:48.101Z,77.10
2018-12-07T04:02:13.497Z,77.10
2018-12-07T04:04:41.363Z,77.10
2018-12-07T04:07:09.027Z,77.10
2018-12-07T04:09:36.795Z,77.20
2018-12-07T04:12:04.382Z,77.20
2018-12-07T04:14:32.019Z,77.20
2018-12-07T04:16:59.590Z,77.10
2018-12-07T04:19:27.172Z,77.10
2018-12-07T04:21:54.874Z,77.40
2018-12-07T04:24:22.477Z,77.20
2018-12-07T04:26:50.192Z,77.30
2018-12-07T04:29:17.821Z,77.30
2018-12-07T04:31:45.445Z,77.40
2018-12-07T04:34:13.076Z,77.40
2018-12-07T04:36:40.710Z,77.40
2018-12-07T04:39:09.688Z,77.40
2018-12-07T04:41:40.931Z,77.40
2018-12-07T04:44:12.658Z,77.60
2018-12-07T04:46:43.548Z,77.60
2018-12-07T04:49:20.048Z,77.40
2018-12-07T04:51:47.904Z,77.50
2018-12-07T04:54:17.231Z,77.50
2018-12-07T04:56:52.879Z,77.40
2018-12-07T04:59:41.224Z,77.40
2018-12-07T05:02:17.938Z,77.40
2018-12-07T05:04:48.976Z,77.40
2018-12-07T05:07:19.844Z,77.60
2018-12-07T05:13:01.432Z,77.50
2018-12-07T05:15:39.904Z,77.40
2018-12-07T05:18:08.613Z,77.30
2018-12-07T05:20:38.589Z,77.40
2018-12-07T05:23:17.600Z,77.50
2018-12-07T05:25:48.701Z,77.60
2018-12-07T05:28:24.909Z,77.50
2018-12-07T05:30:56.068Z,77.40
2018-12-07T05:33:27.945Z,77.30
2018-12-07T05:36:02.669Z,77.20
2018-12-07T05:38:33.795Z,77.20
2018-12-07T05:44:01.495Z,77.40
2018-12-07T05:46:37.830Z,77.30
2018-12-07T05:52:03.700Z,77.30
2018-12-07T05:54:32.782Z,77.30
2018-12-07T05:57:14.420Z,77.20
2018-12-07T06:02:34.991Z,77.20
2018-12-07T06:05:02.599Z,77.20
2018-12-07T06:07:30.190Z,78.10
2018-12-07T06:09:57.815Z,77.20
2018-12-07T06:12:25.378Z,77.20
2018-12-07T06:14:53.354Z,77.30
2018-12-07T06:17:21.387Z,77.20
2018-12-07T06:19:48.995Z,77.20
2018-12-07T06:22:16.649Z,77.30
2018-12-07T06:24:44.563Z,77.30
2018-12-07T06:27:12.217Z,77.40
2018-12-07T06:29:39.777Z,77.50
2018-12-07T06:32:07.485Z,77.40
2018-12-07T06:34:35.220Z,77.30
2018-12-07T06:37:03.305Z,77.30
2018-12-07T06:39:30.894Z,77.40
2018-12-07T06:41:59.363Z,77.50
2018-12-07T06:44:27.058Z,77.50
2018-12-07T06:46:54.686Z,77.40
2018-12-07T06:49:22.322Z,77.60
2018-12-07T06:51:49.902Z,77.40
2018-12-07T06:54:17.521Z,77.40
2018-12-07T06:56:45.158Z,77.50
2018-12-07T06:59:12.755Z,77.50
2018-12-07T07:01:40.393Z,77.40
2018-12-07T07:04:07.993Z,77.50
2018-12-07T07:06:35.602Z,77.60
2018-12-07T07:09:05.187Z,77.50
2018-12-07T07:11:32.821Z,77.70
2018-12-07T07:14:00.439Z,78.00
2018-12-07T07:16:28.059Z,77.50
2018-12-07T07:18:56.953Z,77.60
2018-12-07T07:21:25.128Z,77.50
2018-12-07T07:23:54.127Z,77.40
2018-12-07T07:26:28.713Z,77.40
2018-12-07T07:28:56.424Z,77.50
2018-12-07T07:31:30.843Z,77.60
2018-12-07T07:34:01.371Z,77.70
2018-12-07T07:36:33.092Z,77.70
2018-12-07T07:39:01.122Z,77.70
2018-12-07T07:41:30.623Z,77.60
2018-12-07T07:43:58.489Z,77.70
2018-12-07T07:46:26.474Z,77.60
2018-12-07T07:48:55.566Z,77.60
2018-12-07T07:51:23.151Z,77.60
2018-12-07T07:54:07.242Z,77.60
2018-12-07T07:56:34.873Z,77.70
2018-12-07T07:59:02.474Z,77.60
2018-12-07T08:04:22.339Z,77.40
2018-12-07T08:06:50.050Z,77.20
2018-12-07T08:09:17.686Z,77.20
2018-12-07T08:11:45.585Z,77.20
2018-12-07T08:14:13.167Z,77.10
2018-12-07T08:16:40.751Z,77.10
2018-12-07T08:19:08.843Z,77.00
2018-12-07T08:21:36.394Z,76.70
2018-12-07T08:24:04.788Z,77.20
2018-12-07T08:26:33.065Z,76.80
2018-12-07T08:29:00.670Z,76.80
2018-12-07T08:31:28.249Z,77.50
2018-12-07T08:33:55.889Z,76.70
2018-12-07T08:36:23.445Z,76.60
2018-12-07T08:38:51.016Z,76.60
2018-12-07T08:41:18.649Z,76.60
2018-12-07T08:43:46.228Z,76.50
2018-12-07T08:46:13.804Z,76.40
2018-12-07T08:48:41.461Z,76.40
2018-12-07T08:51:09.881Z,76.40
2018-12-07T08:53:39.508Z,76.40
2018-12-07T08:56:07.671Z,76.40
2018-12-07T08:58:35.845Z,76.40
2018-12-07T09:01:04.121Z,76.40
2018-12-07T09:03:31.714Z,76.30
2018-12-07T09:05:59.375Z,76.20
2018-12-07T09:08:26.980Z,76.20
2018-12-07T09:10:54.604Z,76.10
2018-12-07T09:13:22.227Z,76.20
2018-12-07T09:15:49.823Z,76.10
2018-12-07T09:18:17.483Z,76.00
2018-12-07T09:20:45.153Z,76.00
2018-12-07T09:23:12.801Z,76.00
2018-12-07T09:25:40.383Z,76.00
2018-12-07T09:28:08.002Z,76.00
2018-12-07T09:30:35.667Z,75.80
2018-12-07T09:33:03.950Z,75.80
2018-12-07T09:35:31.599Z,75.70
2018-12-07T09:37:59.172Z,75.70
2018-12-07T09:40:26.864Z,75.80
2018-12-07T09:42:54.460Z,75.70
2018-12-07T09:45:22.048Z,75.60
2018-12-07T09:47:49.658Z,75.60
2018-12-07T09:50:17.324Z,75.60
2018-12-07T09:52:44.931Z,75.70
2018-12-07T09:55:12.478Z,75.60
2018-12-07T09:57:40.099Z,75.50
2018-12-07T10:00:07.758Z,75.30
2018-12-07T10:02:35.302Z,75.50
2018-12-07T10:05:02.855Z,75.60
2018-12-07T10:07:31.224Z,75.60
2018-12-07T10:09:59.601Z,75.50
2018-12-07T10:12:27.881Z,75.50
2018-12-07T10:14:56.258Z,75.40
2018-12-07T10:17:24.438Z,75.50
2018-12-07T10:19:52.032Z,75.60
2018-12-07T10:22:19.939Z,75.50
2018-12-07T10:24:47.659Z,75.40
2018-12-07T10:27:15.278Z,75.20
2018-12-07T10:29:42.886Z,75.30
2018-12-07T10:32:10.475Z,75.20
2018-12-07T10:34:38.059Z,75.40
2018-12-07T10:37:05.665Z,75.50
2018-12-07T10:39:33.263Z,75.50
2018-12-07T10:42:00.854Z,75.50
2018-12-07T10:44:28.486Z,75.50
2018-12-07T10:46:56.121Z,76.20
2018-12-07T10:49:24.256Z,75.50
2018-12-07T10:51:52.528Z,75.50
2018-12-07T10:54:20.289Z,75.40
2018-12-07T10:56:47.892Z,75.30
2018-12-07T10:59:15.478Z,75.30
2018-12-07T11:01:48.706Z,75.30
2018-12-07T11:04:21.759Z,75.20
2018-12-07T11:06:53.670Z,75.20
2018-12-07T11:09:26.836Z,75.10
2018-12-07T11:12:00.205Z,75.10
2018-12-07T11:14:35.481Z,75.10
2018-12-07T11:17:08.653Z,75.00
2018-12-07T11:19:41.826Z,74.70
2018-12-07T11:22:15.129Z,74.70
2018-12-07T11:25:53.083Z,74.60
2018-12-07T11:28:26.114Z,74.60
2018-12-07T11:30:59.746Z,74.80
2018-12-07T11:33:39.153Z,74.80
2018-12-07T11:36:08.271Z,74.60
2018-12-07T11:38:41.265Z,74.40
2018-12-07T11:41:08.769Z,74.50
2018-12-07T11:43:36.238Z,74.60
2018-12-07T11:46:04.859Z,74.60
2018-12-07T11:48:32.449Z,74.70
2018-12-07T11:51:00.040Z,74.60
2018-12-07T11:53:27.599Z,74.90
2018-12-07T11:55:55.188Z,75.00
2018-12-07T11:58:24.815Z,75.10
2018-12-07T12:00:52.375Z,75.00
2018-12-07T12:03:19.959Z,75.10
2018-12-07T12:05:47.614Z,75.10
2018-12-07T12:08:15.208Z,75.00
2018-12-07T12:10:42.792Z,75.10
2018-12-07T12:13:10.455Z,75.00
2018-12-07T12:15:37.987Z,75.00
2018-12-07T12:18:05.581Z,75.00
2018-12-07T12:20:33.106Z,75.00
2018-12-07T12:23:00.666Z,75.00
2018-12-07T12:25:28.250Z,75.00
2018-12-07T12:27:55.878Z,74.90
2018-12-07T12:30:23.473Z,74.90
2018-12-07T12:32:51.091Z,74.80
2018-12-07T12:35:18.667Z,74.80
2018-12-07T12:37:46.262Z,74.80
2018-12-07T12:40:13.883Z,74.80
2018-12-07T12:42:41.629Z,74.80
2018-12-07T12:45:09.252Z,74.80
2018-12-07T12:47:36.835Z,74.80
2018-12-07T12:50:06.876Z,74.80
2018-12-07T12:52:34.433Z,74.70
2018-12-07T12:55:02.058Z,74.60
2018-12-07T12:57:29.638Z,74.50
2018-12-07T12:59:58.909Z,74.20
2018-12-07T13:02:26.673Z,74.00
2018-12-07T13:04:54.285Z,74.00
2018-12-07T13:07:21.869Z,74.00
2018-12-07T13:09:49.478Z,74.00
2018-12-07T13:12:17.038Z,74.00
2018-12-07T13:14:44.636Z,74.00
2018-12-07T13:17:12.191Z,74.00
2018-12-07T13:19:39.746Z,73.90
2018-12-07T13:22:07.361Z,74.00
2018-12-07T13:24:34.921Z,73.90
2018-12-07T13:27:02.605Z,74.00
2018-12-07T13:29:30.223Z,74.00
2018-12-07T13:31:58.260Z,74.80
2018-12-07T13:34:25.815Z,74.20
2018-12-07T13:36:53.427Z,74.20
2018-12-07T13:39:21.005Z,74.10
2018-12-07T13:41:50.603Z,74.10
2018-12-07T13:44:18.301Z,74.10
2018-12-07T13:46:45.942Z,74.10
2018-12-07T13:49:14.044Z,74.00
2018-12-07T13:51:41.723Z,73.90
2018-12-07T13:54:09.437Z,74.00
2018-12-07T13:56:37.150Z,74.10
2018-12-07T13:59:04.633Z,74.10
2018-12-07T14:01:32.937Z,74.20
2018-12-07T14:04:00.719Z,74.00
2018-12-07T14:06:28.470Z,74.00
2018-12-07T14:08:56.114Z,74.00
2018-12-07T14:11:25.789Z,74.00
2018-12-07T14:13:53.410Z,73.90
2018-12-07T14:16:20.966Z,73.80
2018-12-07T14:18:48.486Z,74.00
2018-12-07T14:21:16.168Z,74.00
2018-12-07T14:23:43.701Z,74.00
2018-12-07T14:26:11.391Z,74.00
2018-12-07T14:28:40.071Z,73.80
2018-12-07T14:31:07.668Z,73.80
2018-12-07T14:33:35.360Z,74.00
2018-12-07T14:36:03.172Z,73.90
2018-12-07T14:38:30.855Z,74.10
2018-12-07T14:40:58.571Z,74.00
2018-12-07T14:43:27.328Z,74.10
2018-12-07T14:45:55.037Z,74.30
2018-12-07T14:48:22.770Z,74.30
2018-12-07T14:50:51.361Z,74.40
2018-12-07T14:53:19.120Z,74.50
2018-12-07T14:55:46.812Z,74.50
2018-12-07T14:58:14.458Z,74.60
2018-12-07T15:00:41.999Z,74.50
2018-12-07T15:03:09.713Z,74.60
2018-12-07T15:05:37.274Z,74.50
2018-12-07T15:08:10.302Z,74.60
2018-12-07T15:10:37.980Z,74.60
2018-12-07T15:13:05.872Z,74.60
2018-12-07T15:15:33.590Z,74.60
2018-12-07T15:18:01.289Z,74.70
2018-12-07T15:23:20.768Z,74.70
2018-12-07T15:25:56.098Z,74.60
2018-12-07T15:28:24.255Z,74.70
2018-12-07T15:33:59.327Z,74.90
2018-12-07T15:53:59.165Z,74.90
2018-12-07T15:59:34.631Z,75.00
2018-12-07T16:02:04.107Z,75.10
2018-12-07T16:04:32.527Z,75.10
2018-12-07T16:07:01.258Z,74.90
2018-12-07T16:09:42.862Z,74.90
2018-12-07T16:26:20.097Z,75.10
2018-12-07T16:28:51.787Z,75.00
2018-12-07T16:34:24.159Z,75.10
2018-12-07T16:45:34.686Z,75.10
2018-12-07T16:54:02.358Z,74.80
2018-12-07T16:56:38.717Z,74.80
2018-12-07T17:02:08.654Z,74.70
2018-12-07T17:04:52.866Z,74.80
2018-12-07T17:07:33.208Z,74.80
2018-12-07T17:12:58.954Z,75.00
2018-12-07T17:18:19.445Z,75.10
2018-12-07T17:20:53.272Z,74.70
2018-12-07T17:23:30.300Z,74.80
2018-12-07T17:26:01.944Z,74.80
2018-12-07T17:34:22.840Z,74.70
2018-12-07T17:39:52.695Z,74.80
2018-12-07T17:42:32.623Z,74.80
2018-12-07T17:50:56.288Z,74.80
2018-12-07T17:53:24.033Z,74.80
2018-12-07T17:56:02.021Z,74.60
2018-12-07T18:10:20.023Z,73.20
2018-12-07T18:15:56.244Z,72.70
2018-12-07T18:18:38.632Z,72.50
2018-12-07T18:24:06.522Z,72.30
2018-12-07T18:26:46.311Z,72.30
2018-12-07T18:32:18.169Z,72.30
2018-12-07T18:43:26.239Z,73.50
2018-12-07T18:45:58.490Z,72.80
2018-12-07T18:51:15.149Z,72.50
2018-12-07T18:53:46.713Z,72.30
2018-12-07T18:56:17.940Z,71.90
2018-12-07T18:58:54.932Z,71.90
2018-12-07T19:04:18.589Z,72.40
2018-12-07T19:06:52.387Z,72.60
2018-12-07T19:09:27.336Z,72.50
2018-12-07T19:15:03.222Z,71.90
2018-12-07T19:17:43.338Z,71.80
2018-12-07T19:23:14.695Z,72.10
2018-12-07T19:34:38.699Z,72.50
2018-12-07T19:37:08.901Z,72.60
2018-12-07T19:39:42.508Z,72.50
2018-12-07T19:42:18.693Z,72.70
2018-12-07T19:53:16.551Z,72.70
2018-12-07T19:55:48.158Z,72.50
2018-12-07T19:58:19.130Z,72.70
2018-12-07T20:03:52.596Z,72.40
2018-12-07T20:06:36.208Z,72.30
2018-12-07T20:09:07.756Z,72.30
2018-12-07T20:14:25.909Z,72.10
2018-12-07T20:25:07.166Z,72.90
2018-12-07T20:27:41.954Z,73.10
2018-12-07T20:30:15.475Z,73.40
2018-12-07T20:32:51.268Z,73.30
2018-12-07T20:38:14.598Z,72.40
2018-12-07T20:40:47.755Z,72.20
2018-12-07T20:46:17.210Z,72.20
2018-12-07T20:51:48.695Z,72.30
2018-12-07T20:54:17.150Z,72.40
2018-12-07T21:02:36.252Z,72.50
2018-12-07T21:05:08.459Z,72.50
2018-12-07T21:08:08.944Z,72.50
2018-12-07T21:10:46.792Z,72.60
2018-12-07T21:13:29.740Z,72.70
2018-12-07T21:18:57.188Z,72.40
2018-12-07T21:27:03.481Z,72.60
2018-12-07T21:29:31.228Z,72.60
2018-12-07T21:32:13.440Z,72.50
2018-12-07T21:34:46.919Z,72.50
2018-12-07T21:37:20.651Z,73.30
2018-12-07T21:39:50.356Z,72.60
2018-12-07T21:42:18.408Z,72.50
2018-12-07T21:44:46.811Z,72.20
2018-12-07T21:47:14.885Z,72.30
2018-12-07T21:50:01.921Z,72.40
2018-12-07T21:52:31.874Z,72.50
2018-12-07T21:54:59.515Z,72.50
2018-12-07T21:57:27.349Z,72.50
2018-12-07T22:00:00.457Z,72.50
2018-12-07T22:02:28.137Z,72.60
2018-12-07T22:05:01.208Z,72.50
2018-12-07T22:07:34.890Z,72.50
2018-12-07T22:10:02.443Z,72.60
2018-12-07T22:12:30.151Z,73.30
2018-12-07T22:14:57.796Z,72.20
2018-12-07T22:17:25.573Z,72.60
2018-12-07T22:19:53.455Z,72.60
2018-12-07T22:22:21.280Z,72.60
2018-12-07T22:24:49.038Z,72.60
2018-12-07T22:27:16.778Z,72.60
2018-12-07T22:29:44.638Z,72.50
2018-12-07T22:32:12.675Z,72.50
2018-12-07T22:34:40.664Z,72.50
2018-12-07T22:37:08.388Z,72.30
2018-12-07T22:39:36.396Z,72.50
2018-12-07T22:42:04.288Z,72.50
2018-12-07T22:44:32.137Z,72.50
2018-12-07T22:46:59.999Z,72.40
2018-12-07T22:49:27.691Z,72.40
2018-12-07T22:51:55.303Z,72.40
2018-12-07T22:54:25.113Z,72.40
2018-12-07T22:56:52.884Z,72.40
2018-12-07T22:59:20.452Z,72.20
2018-12-07T23:01:48.006Z,72.30
2018-12-07T23:04:15.688Z,72.40
2018-12-07T23:06:43.277Z,72.30
2018-12-07T23:09:10.909Z,72.40
2018-12-07T23:11:38.547Z,72.20
2018-12-07T23:14:08.188Z,72.40
2018-12-07T23:16:35.823Z,72.30
2018-12-07T23:19:03.461Z,72.40
2018-12-07T23:21:31.045Z,72.40
2018-12-07T23:23:58.714Z,72.40
2018-12-07T23:26:26.301Z,72.40
2018-12-07T23:28:53.904Z,72.40
2018-12-07T23:31:21.489Z,72.40
2018-12-07T23:33:49.131Z,72.30
2018-12-07T23:36:16.719Z,72.30
2018-12-07T23:38:44.273Z,72.30
2018-12-07T23:41:11.938Z,72.40
2018-12-07T23:43:39.542Z,72.30
2018-12-07T23:46:07.253Z,72.30
2018-12-07T23:48:34.992Z,72.30
2018-12-07T23:51:02.635Z,72.30
2018-12-07T23:53:30.735Z,72.20
2018-12-07T23:55:58.320Z,72.30
2018-12-07T23:58:25.857Z,72.30
